createdAt,value
2023-03-29T00:01:00.192Z,98828.38
2023-03-29T00:02:02.505Z,98821.72
2023-03-29T00:03:04.421Z,98830.50
2023-03-29T00:04:06.462Z,98829.13
2023-03-29T00:05:09.593Z,98823.56
2023-03-29T00:06:15.117Z,98828.66
2023-03-29T00:07:16.562Z,98833.75
2023-03-29T00:08:18.520Z,98830.34
2023-03-29T00:09:20.669Z,98835.28
2023-03-29T00:10:24.124Z,98833.44
2023-03-29T00:11:26.446Z,98836.34
2023-03-29T00:12:28.632Z,98844.34
2023-03-29T00:13:30.734Z,98837.72
2023-03-29T00:14:32.312Z,98835.88
2023-03-29T00:15:33.851Z,98828.19
2023-03-29T00:16:37.393Z,98825.25
2023-03-29T00:17:39.243Z,98838.34
2023-03-29T00:18:41.072Z,98848.97
2023-03-29T00:19:46.673Z,98835.88
2023-03-29T00:20:55.907Z,98840.97
2023-03-29T00:21:57.394Z,98837.44
2023-03-29T00:22:58.936Z,98834.06
2023-03-29T00:24:00.443Z,98833.59
2023-03-29T00:25:01.901Z,98831.28
2023-03-29T00:26:05.894Z,98831.75
2023-03-29T00:27:08.719Z,98826.50
2023-03-29T00:28:10.223Z,98827.56
2023-03-29T00:29:11.857Z,98818.00
2023-03-29T00:30:13.964Z,98822.22
2023-03-29T00:31:17.406Z,98810.66
2023-03-29T00:32:18.953Z,98812.66
2023-03-29T00:33:20.679Z,98805.38
2023-03-29T00:34:42.850Z,98807.06
2023-03-29T00:35:44.824Z,98802.94
2023-03-29T00:36:50.855Z,98798.63
2023-03-29T00:37:52.963Z,98792.28
2023-03-29T00:38:56.261Z,98792.03
2023-03-29T00:39:58.279Z,98792.34
2023-03-29T00:40:59.946Z,98784.16
2023-03-29T00:42:02.753Z,98777.38
2023-03-29T00:43:06.269Z,98776.63
2023-03-29T00:44:46.304Z,98776.16
2023-03-29T00:45:47.888Z,98770.59
2023-03-29T00:46:49.563Z,98772.75
2023-03-29T00:47:57.053Z,98771.38
2023-03-29T00:49:05.812Z,98766.44
2023-03-29T00:50:16.923Z,98766.88
2023-03-29T00:51:20.894Z,98764.41
2023-03-29T00:52:22.734Z,98762.88
2023-03-29T00:53:29.949Z,98760.72
2023-03-29T00:54:33.430Z,98762.31
2023-03-29T00:55:43.177Z,98757.22
2023-03-29T00:56:50.043Z,98756.91
2023-03-29T00:57:53.682Z,98753.66
2023-03-29T00:59:25.278Z,98758.59
2023-03-29T01:00:33.402Z,98747.63
2023-03-29T01:01:55.102Z,98761.47
2023-03-29T01:03:01.187Z,98754.69
2023-03-29T01:04:09.499Z,98746.06
2023-03-29T01:05:17.523Z,98747.75
2023-03-29T01:06:21.698Z,98751.28
2023-03-29T01:07:32.671Z,98737.25
2023-03-29T01:08:43.948Z,98737.84
2023-03-29T01:09:50.799Z,98738.16
2023-03-29T01:11:17.680Z,98738.19
2023-03-29T01:12:35.926Z,98738.97
2023-03-29T01:13:41.952Z,98741.25
2023-03-29T01:14:54.310Z,98733.72
2023-03-29T01:15:57.476Z,98736.19
2023-03-29T01:16:59.419Z,98723.28
2023-03-29T01:18:02.109Z,98723.75
2023-03-29T01:19:05.336Z,98717.25
2023-03-29T01:20:25.573Z,98707.97
2023-03-29T01:21:39.836Z,98708.47
2023-03-29T01:22:53.198Z,98710.06
2023-03-29T01:24:20.545Z,98709.94
2023-03-29T01:26:04.035Z,98707.88
2023-03-29T01:27:15.718Z,98700.38
2023-03-29T01:28:29.099Z,98705.78
2023-03-29T01:29:33.287Z,98702.06
2023-03-29T01:30:48.419Z,98707.59
2023-03-29T01:31:54.712Z,98698.78
2023-03-29T01:33:10.712Z,98702.16
2023-03-29T01:34:25.653Z,98703.41
2023-03-29T01:35:39.131Z,98702.47
2023-03-29T01:37:00.313Z,98700.00
2023-03-29T01:38:09.580Z,98701.72
2023-03-29T01:39:11.063Z,98697.00
2023-03-29T01:40:12.675Z,98692.19
2023-03-29T01:41:14.410Z,98697.09
2023-03-29T01:42:35.712Z,98688.47
2023-03-29T01:43:59.072Z,98682.91
2023-03-29T01:45:09.930Z,98688.63
2023-03-29T01:46:37.393Z,98694.47
2023-03-29T01:48:00.564Z,98690.34
2023-03-29T01:49:15.676Z,98686.34
2023-03-29T01:50:23.924Z,98680.47
2023-03-29T01:51:42.408Z,98689.91
2023-03-29T01:53:05.491Z,98682.47
2023-03-29T01:54:16.615Z,98686.81
2023-03-29T01:55:25.788Z,98680.66
2023-03-29T01:56:28.241Z,98682.81
2023-03-29T01:57:33.001Z,98688.66
2023-03-29T01:58:39.686Z,98690.34
2023-03-29T01:59:43.808Z,98689.41
2023-03-29T02:00:46.302Z,98689.22
2023-03-29T02:01:55.235Z,98670.66
2023-03-29T02:03:00.667Z,98673.81
2023-03-29T02:04:06.563Z,98675.97
2023-03-29T02:05:10.045Z,98676.72
2023-03-29T02:06:16.360Z,98681.47
2023-03-29T02:07:24.445Z,98671.94
2023-03-29T02:08:27.500Z,98672.34
2023-03-29T02:09:30.319Z,98673.41
2023-03-29T02:10:33.923Z,98664.00
2023-03-29T02:11:36.375Z,98667.38
2023-03-29T02:12:38.545Z,98667.22
2023-03-29T02:13:40.353Z,98663.53
2023-03-29T02:14:42.128Z,98672.91
2023-03-29T02:15:47.660Z,98666.78
2023-03-29T02:16:49.989Z,98670.63
2023-03-29T02:17:51.544Z,98671.22
2023-03-29T02:18:56.288Z,98664.88
2023-03-29T02:20:08.295Z,98668.41
2023-03-29T02:21:14.909Z,98668.41
2023-03-29T02:22:23.903Z,98670.72
2023-03-29T02:23:34.329Z,98673.91
2023-03-29T02:24:39.420Z,98666.94
2023-03-29T02:25:43.295Z,98662.31
2023-03-29T02:26:44.876Z,98663.56
2023-03-29T02:27:46.426Z,98672.78
2023-03-29T02:28:48.192Z,98665.06
2023-03-29T02:29:49.665Z,98660.59
2023-03-29T02:31:15.758Z,98661.34
2023-03-29T02:32:28.706Z,98667.34
2023-03-29T02:33:39.028Z,98668.44
2023-03-29T02:34:49.298Z,98659.81
2023-03-29T02:36:10.603Z,98663.72
2023-03-29T02:37:15.741Z,98661.53
2023-03-29T02:38:17.365Z,98657.22
2023-03-29T02:39:21.294Z,98659.69
2023-03-29T02:40:26.113Z,98662.44
2023-03-29T02:41:28.603Z,98662.25
2023-03-29T02:42:31.337Z,98664.72
2023-03-29T02:43:35.497Z,98653.78
2023-03-29T02:44:41.354Z,98664.56
2023-03-29T02:45:44.640Z,98656.09
2023-03-29T02:46:49.846Z,98659.22
2023-03-29T02:48:03.305Z,98661.22
2023-03-29T02:49:05.263Z,98666.59
2023-03-29T02:50:08.588Z,98660.88
2023-03-29T02:51:20.067Z,98657.03
2023-03-29T02:52:27.452Z,98656.69
2023-03-29T02:53:34.055Z,98646.88
2023-03-29T02:54:37.973Z,98644.13
2023-03-29T02:55:39.788Z,98639.19
2023-03-29T02:56:53.514Z,98643.69
2023-03-29T02:57:54.956Z,98645.66
2023-03-29T02:58:56.382Z,98638.53
2023-03-29T02:59:59.947Z,98644.56
2023-03-29T03:01:02.764Z,98643.03
2023-03-29T03:02:05.322Z,98640.88
2023-03-29T03:03:11.807Z,98637.59
2023-03-29T03:04:13.467Z,98628.97
2023-03-29T03:05:15.050Z,98635.84
2023-03-29T03:06:16.818Z,98635.03
2023-03-29T03:07:19.970Z,98634.06
2023-03-29T03:08:21.383Z,98641.03
2023-03-29T03:09:22.858Z,98628.06
2023-03-29T03:10:24.536Z,98634.84
2023-03-29T03:11:25.932Z,98640.53
2023-03-29T03:12:27.403Z,98620.75
2023-03-29T03:13:28.948Z,98625.38
2023-03-29T03:14:30.442Z,98620.13
2023-03-29T03:15:35.633Z,98623.31
2023-03-29T03:16:37.342Z,98628.44
2023-03-29T03:17:40.225Z,98622.56
2023-03-29T03:18:42.010Z,98618.59
2023-03-29T03:19:43.468Z,98617.22
2023-03-29T03:20:54.956Z,98615.69
2023-03-29T03:21:57.018Z,98620.19
2023-03-29T03:22:58.544Z,98625.41
2023-03-29T03:24:00.151Z,98616.03
2023-03-29T03:25:01.577Z,98622.03
2023-03-29T03:26:03.181Z,98618.47
2023-03-29T03:27:04.912Z,98616.75
2023-03-29T03:28:06.393Z,98615.78
2023-03-29T03:29:07.811Z,98620.72
2023-03-29T03:30:10.106Z,98616.09
2023-03-29T03:31:14.313Z,98619.81
2023-03-29T03:32:16.262Z,98625.56
2023-03-29T03:33:18.849Z,98624.31
2023-03-29T03:34:20.435Z,98619.22
2023-03-29T03:35:22.706Z,98618.78
2023-03-29T03:36:26.421Z,98614.16
2023-03-29T03:37:27.873Z,98611.91
2023-03-29T03:38:29.828Z,98620.44
2023-03-29T03:39:31.469Z,98617.97
2023-03-29T03:40:33.322Z,98615.19
2023-03-29T03:41:35.124Z,98618.56
2023-03-29T03:42:36.954Z,98625.19
2023-03-29T03:43:38.536Z,98620.56
2023-03-29T03:44:39.985Z,98619.66
2023-03-29T03:45:42.942Z,98611.63
2023-03-29T03:46:44.670Z,98615.19
2023-03-29T03:47:46.182Z,98608.50
2023-03-29T03:48:48.062Z,98608.63
2023-03-29T03:49:49.484Z,98605.56
2023-03-29T03:50:53.308Z,98600.56
2023-03-29T03:51:55.067Z,98602.72
2023-03-29T03:52:56.460Z,98598.41
2023-03-29T03:53:57.912Z,98588.81
2023-03-29T03:54:59.314Z,98596.38
2023-03-29T03:56:02.211Z,98595.75
2023-03-29T03:57:04.035Z,98595.44
2023-03-29T03:58:05.562Z,98591.25
2023-03-29T03:59:07.246Z,98591.00
2023-03-29T04:00:19.452Z,98583.38
2023-03-29T04:01:21.007Z,98588.91
2023-03-29T04:02:23.597Z,98588.59
2023-03-29T04:03:25.165Z,98581.16
2023-03-29T04:04:26.839Z,98589.66
2023-03-29T04:05:28.387Z,98582.97
2023-03-29T04:06:30.665Z,98577.28
2023-03-29T04:07:32.700Z,98574.94
2023-03-29T04:08:34.184Z,98565.69
2023-03-29T04:09:35.625Z,98570.31
2023-03-29T04:10:37.218Z,98570.94
2023-03-29T04:11:38.966Z,98573.75
2023-03-29T04:12:40.730Z,98577.94
2023-03-29T04:13:42.246Z,98574.75
2023-03-29T04:14:43.678Z,98577.97
2023-03-29T04:15:46.120Z,98571.34
2023-03-29T04:16:47.580Z,98573.31
2023-03-29T04:17:49.086Z,98573.47
2023-03-29T04:18:50.683Z,98567.28
2023-03-29T04:19:52.252Z,98574.03
2023-03-29T04:20:53.674Z,98573.84
2023-03-29T04:21:55.418Z,98572.00
2023-03-29T04:22:56.899Z,98573.56
2023-03-29T04:23:58.313Z,98564.38
2023-03-29T04:24:59.745Z,98562.34
2023-03-29T04:26:01.201Z,98564.38
2023-03-29T04:27:02.632Z,98567.75
2023-03-29T04:28:04.327Z,98562.81
2023-03-29T04:29:05.809Z,98560.81
2023-03-29T04:30:08.112Z,98564.59
2023-03-29T04:31:13.694Z,98567.66
2023-03-29T04:32:15.190Z,98571.34
2023-03-29T04:33:17.330Z,98575.81
2023-03-29T04:34:18.800Z,98572.72
2023-03-29T04:35:20.211Z,98566.06
2023-03-29T04:36:21.724Z,98560.50
2023-03-29T04:37:23.218Z,98560.13
2023-03-29T04:38:24.657Z,98554.88
2023-03-29T04:39:33.001Z,98551.69
2023-03-29T04:40:34.425Z,98556.59
2023-03-29T04:41:36.189Z,98560.03
2023-03-29T04:42:37.663Z,98554.31
2023-03-29T04:43:40.271Z,98553.84
2023-03-29T04:44:43.609Z,98547.06
2023-03-29T04:45:45.510Z,98548.31
2023-03-29T04:46:47.366Z,98546.06
2023-03-29T04:47:49.451Z,98548.34
2023-03-29T04:48:51.324Z,98550.34
2023-03-29T04:49:52.765Z,98548.50
2023-03-29T04:50:54.536Z,98547.94
2023-03-29T04:51:56.076Z,98544.69
2023-03-29T04:53:00.159Z,98548.03
2023-03-29T04:54:01.694Z,98543.19
2023-03-29T04:55:04.876Z,98546.44
2023-03-29T04:56:06.915Z,98544.25
2023-03-29T04:57:08.722Z,98545.97
2023-03-29T04:58:10.274Z,98538.25
2023-03-29T04:59:11.701Z,98544.84
2023-03-29T05:00:17.114Z,98547.41
2023-03-29T05:01:18.657Z,98543.25
2023-03-29T05:02:21.060Z,98540.63
2023-03-29T05:03:22.593Z,98537.69
2023-03-29T05:04:24.674Z,98536.16
2023-03-29T05:05:27.060Z,98547.41
2023-03-29T05:06:29.570Z,98543.53
2023-03-29T05:07:31.029Z,98544.78
2023-03-29T05:08:34.779Z,98548.31
2023-03-29T05:09:36.298Z,98550.16
2023-03-29T05:10:37.783Z,98547.22
2023-03-29T05:11:39.235Z,98548.75
2023-03-29T05:12:40.700Z,98548.31
2023-03-29T05:13:42.707Z,98546.44
2023-03-29T05:14:44.244Z,98544.25
2023-03-29T05:15:45.982Z,98544.44
2023-03-29T05:16:47.810Z,98549.97
2023-03-29T05:17:49.569Z,98542.53
2023-03-29T05:18:51.737Z,98542.88
2023-03-29T05:19:54.278Z,98548.59
2023-03-29T05:20:56.939Z,98543.25
2023-03-29T05:21:59.243Z,98547.00
2023-03-29T05:23:01.512Z,98547.31
2023-03-29T05:24:03.115Z,98552.84
2023-03-29T05:25:05.601Z,98552.31
2023-03-29T05:26:08.254Z,98543.19
2023-03-29T05:27:10.019Z,98543.03
2023-03-29T05:28:11.448Z,98536.06
2023-03-29T05:29:13.145Z,98532.97
2023-03-29T05:30:15.345Z,98530.03
2023-03-29T05:31:17.345Z,98525.69
2023-03-29T05:32:18.866Z,98528.94
2023-03-29T05:33:20.276Z,98531.22
2023-03-29T05:34:21.753Z,98520.19
2023-03-29T05:35:25.469Z,98527.28
2023-03-29T05:36:26.911Z,98524.94
2023-03-29T05:37:28.598Z,98528.31
2023-03-29T05:39:50.707Z,98529.69
2023-03-29T05:40:53.214Z,98530.41
2023-03-29T05:41:55.282Z,98529.78
2023-03-29T05:42:57.695Z,98525.75
2023-03-29T05:43:59.270Z,98532.84
2023-03-29T05:45:00.792Z,98521.41
2023-03-29T05:46:02.556Z,98522.38
2023-03-29T05:47:04.012Z,98520.41
2023-03-29T05:48:05.711Z,98519.94
2023-03-29T05:49:07.189Z,98528.34
2023-03-29T05:50:10.299Z,98520.94
2023-03-29T05:51:11.791Z,98524.47
2023-03-29T05:52:14.445Z,98525.09
2023-03-29T05:53:16.889Z,98526.91
2023-03-29T05:54:18.313Z,98521.72
2023-03-29T05:55:19.735Z,98516.47
2023-03-29T05:56:22.427Z,98521.41
2023-03-29T05:57:23.976Z,98519.88
2023-03-29T05:58:26.698Z,98517.34
2023-03-29T05:59:29.642Z,98521.03
2023-03-29T06:00:34.619Z,98523.31
2023-03-29T06:01:36.695Z,98535.25
2023-03-29T06:02:38.148Z,98530.00
2023-03-29T06:03:39.776Z,98529.69
2023-03-29T06:04:41.720Z,98520.00
2023-03-29T06:05:43.169Z,98529.72
2023-03-29T06:06:44.556Z,98527.41
2023-03-29T06:07:48.661Z,98528.63
2023-03-29T06:08:50.644Z,98530.25
2023-03-29T06:09:52.056Z,98532.28
2023-03-29T06:11:06.130Z,98522.47
2023-03-29T06:12:08.438Z,98522.03
2023-03-29T06:13:09.866Z,98529.84
2023-03-29T06:14:11.306Z,98530.03
2023-03-29T06:15:14.075Z,98527.75
2023-03-29T06:16:16.521Z,98525.75
2023-03-29T06:17:18.917Z,98527.25
2023-03-29T06:18:20.637Z,98518.06
2023-03-29T06:19:22.716Z,98526.03
2023-03-29T06:20:24.103Z,98534.34
2023-03-29T06:21:27.207Z,98531.09
2023-03-29T06:22:28.660Z,98530.75
2023-03-29T06:23:30.708Z,98537.63
2023-03-29T06:24:32.263Z,98523.72
2023-03-29T06:25:34.223Z,98525.19
2023-03-29T06:26:35.702Z,98523.31
2023-03-29T06:27:37.320Z,98529.13
2023-03-29T06:28:38.838Z,98526.16
2023-03-29T06:29:40.352Z,98519.75
2023-03-29T06:30:42.059Z,98526.63
2023-03-29T06:31:43.604Z,98521.66
2023-03-29T06:32:45.320Z,98531.63
2023-03-29T06:33:47.187Z,98528.50
2023-03-29T06:34:48.669Z,98528.50
2023-03-29T06:35:50.160Z,98530.78
2023-03-29T06:36:51.697Z,98532.91
2023-03-29T06:37:54.377Z,98535.69
2023-03-29T06:38:56.084Z,98538.66
2023-03-29T06:39:57.979Z,98533.72
2023-03-29T06:41:08.096Z,98529.78
2023-03-29T06:42:20.226Z,98528.63
2023-03-29T06:43:22.807Z,98534.44
2023-03-29T06:44:25.550Z,98532.28
2023-03-29T06:45:29.332Z,98541.34
2023-03-29T06:46:30.923Z,98536.53
2023-03-29T06:47:32.897Z,98538.06
2023-03-29T06:48:34.541Z,98535.53
2023-03-29T06:49:35.995Z,98539.06
2023-03-29T06:50:37.467Z,98542.53
2023-03-29T06:51:40.176Z,98536.84
2023-03-29T06:52:41.859Z,98542.69
2023-03-29T06:53:43.267Z,98546.75
2023-03-29T06:54:44.731Z,98543.44
2023-03-29T06:55:46.480Z,98544.78
2023-03-29T06:56:48.964Z,98539.81
2023-03-29T06:57:50.654Z,98549.34
2023-03-29T06:58:52.059Z,98539.09
2023-03-29T06:59:53.898Z,98542.28
2023-03-29T07:01:01.260Z,98539.81
2023-03-29T07:02:02.862Z,98536.97
2023-03-29T07:03:06.882Z,98539.94
2023-03-29T07:04:09.402Z,98539.53
2023-03-29T07:05:13.548Z,98543.16
2023-03-29T07:06:17.806Z,98536.91
2023-03-29T07:07:22.791Z,98539.75
2023-03-29T07:08:30.983Z,98546.16
2023-03-29T07:09:33.446Z,98543.91
2023-03-29T07:10:41.524Z,98542.28
2023-03-29T07:11:43.472Z,98545.19
2023-03-29T07:12:46.253Z,98547.59
2023-03-29T07:13:49.143Z,98552.00
2023-03-29T07:14:50.633Z,98540.25
2023-03-29T07:15:52.807Z,98548.91
2023-03-29T07:16:55.571Z,98546.50
2023-03-29T07:17:58.069Z,98552.31
2023-03-29T07:18:59.602Z,98548.44
2023-03-29T07:20:01.069Z,98555.97
2023-03-29T07:21:03.281Z,98547.06
2023-03-29T07:22:04.801Z,98555.34
2023-03-29T07:23:08.076Z,98553.91
2023-03-29T07:24:10.173Z,98553.00
2023-03-29T07:25:12.326Z,98557.75
2023-03-29T07:26:14.380Z,98549.81
2023-03-29T07:27:30.291Z,98552.22
2023-03-29T07:28:31.800Z,98558.34
2023-03-29T07:29:33.393Z,98554.56
2023-03-29T07:30:34.822Z,98552.81
2023-03-29T07:31:38.634Z,98558.75
2023-03-29T07:32:41.683Z,98550.81
2023-03-29T07:33:44.239Z,98555.53
2023-03-29T07:34:47.971Z,98555.00
2023-03-29T07:35:49.782Z,98551.19
2023-03-29T07:36:51.639Z,98550.00
2023-03-29T07:37:54.941Z,98552.75
2023-03-29T07:39:01.787Z,98548.81
2023-03-29T07:40:09.328Z,98551.22
2023-03-29T07:41:11.280Z,98550.13
2023-03-29T07:42:12.742Z,98553.72
2023-03-29T07:43:14.134Z,98552.53
2023-03-29T07:44:18.390Z,98549.16
2023-03-29T07:45:26.743Z,98547.28
2023-03-29T07:46:29.937Z,98549.59
2023-03-29T07:47:31.906Z,98553.19
2023-03-29T07:48:33.847Z,98557.47
2023-03-29T07:49:35.429Z,98557.03
2023-03-29T07:50:37.212Z,98549.38
2023-03-29T07:51:38.720Z,98549.25
2023-03-29T07:52:40.954Z,98557.91
2023-03-29T07:53:42.439Z,98549.81
2023-03-29T07:54:43.865Z,98543.38
2023-03-29T07:55:49.512Z,98545.88
2023-03-29T07:56:51.027Z,98538.97
2023-03-29T07:57:53.565Z,98546.38
2023-03-29T07:58:55.127Z,98549.84
2023-03-29T07:59:56.799Z,98553.97
2023-03-29T08:01:00.830Z,98550.63
2023-03-29T08:02:02.532Z,98545.06
2023-03-29T08:03:04.296Z,98548.31
2023-03-29T08:04:06.132Z,98551.81
2023-03-29T08:05:08.434Z,98554.94
2023-03-29T08:06:10.078Z,98560.03
2023-03-29T08:07:12.554Z,98558.63
2023-03-29T08:08:14.224Z,98559.59
2023-03-29T08:09:15.726Z,98560.44
2023-03-29T08:10:20.026Z,98551.97
2023-03-29T08:11:21.630Z,98557.63
2023-03-29T08:12:24.986Z,98551.88
2023-03-29T08:13:26.641Z,98550.63
2023-03-29T08:14:28.767Z,98549.03
2023-03-29T08:15:30.959Z,98552.47
2023-03-29T08:16:32.800Z,98561.63
2023-03-29T08:17:35.269Z,98556.16
2023-03-29T08:18:36.785Z,98555.56
2023-03-29T08:19:38.218Z,98555.63
2023-03-29T08:20:39.971Z,98550.13
2023-03-29T08:21:41.403Z,98557.00
2023-03-29T08:22:43.252Z,98554.81
2023-03-29T08:23:44.748Z,98562.22
2023-03-29T08:24:46.412Z,98547.88
2023-03-29T08:25:48.185Z,98543.97
2023-03-29T08:26:49.559Z,98550.97
2023-03-29T08:27:50.999Z,98551.13
2023-03-29T08:28:52.386Z,98546.03
2023-03-29T08:29:53.809Z,98543.78
2023-03-29T08:30:55.260Z,98557.34
2023-03-29T08:31:58.266Z,98550.97
2023-03-29T08:32:59.654Z,98554.91
2023-03-29T08:34:01.129Z,98551.03
2023-03-29T08:35:05.110Z,98554.31
2023-03-29T08:36:07.157Z,98555.03
2023-03-29T08:37:09.791Z,98551.59
2023-03-29T08:38:12.500Z,98556.00
2023-03-29T08:39:13.976Z,98562.16
2023-03-29T08:40:21.797Z,98550.66
2023-03-29T08:41:53.430Z,98556.44
2023-03-29T08:43:20.971Z,98566.63
2023-03-29T08:45:07.763Z,98555.22
2023-03-29T08:46:16.751Z,98559.94
2023-03-29T08:47:28.508Z,98558.91
2023-03-29T08:48:42.413Z,98565.75
2023-03-29T08:49:49.219Z,98553.97
2023-03-29T08:50:52.850Z,98550.94
2023-03-29T08:52:02.538Z,98553.22
2023-03-29T08:53:15.393Z,98563.09
2023-03-29T08:54:21.811Z,98547.44
2023-03-29T08:55:44.802Z,98553.69
2023-03-29T08:56:47.796Z,98542.13
2023-03-29T08:57:51.667Z,98551.41
2023-03-29T08:58:56.714Z,98538.50
2023-03-29T09:00:05.531Z,98547.63
2023-03-29T09:01:11.359Z,98539.22
2023-03-29T09:02:19.034Z,98539.38
2023-03-29T09:03:42.531Z,98536.53
2023-03-29T09:04:45.044Z,98539.00
2023-03-29T09:05:51.645Z,98539.94
2023-03-29T09:06:54.219Z,98532.06
2023-03-29T09:07:56.084Z,98540.47
2023-03-29T09:08:57.976Z,98540.97
2023-03-29T09:09:59.616Z,98531.59
2023-03-29T09:11:27.830Z,98542.00
2023-03-29T09:13:12.520Z,98538.69
2023-03-29T09:14:38.219Z,98542.44
2023-03-29T09:16:04.099Z,98537.91
2023-03-29T09:17:22.327Z,98539.50
2023-03-29T09:18:36.987Z,98534.94
2023-03-29T09:19:56.660Z,98535.47
2023-03-29T09:21:16.916Z,98534.41
2023-03-29T09:22:24.263Z,98532.25
2023-03-29T09:23:41.911Z,98533.53
2023-03-29T09:24:58.336Z,98528.41
2023-03-29T09:26:10.250Z,98524.22
2023-03-29T09:27:26.534Z,98526.22
2023-03-29T09:28:53.124Z,98525.91
2023-03-29T09:30:00.286Z,98525.97
2023-03-29T09:31:26.206Z,98531.69
2023-03-29T09:32:46.959Z,98518.09
2023-03-29T09:34:15.857Z,98531.38
2023-03-29T09:35:27.607Z,98526.84
2023-03-29T09:36:46.359Z,98523.06
2023-03-29T09:37:51.249Z,98511.25
2023-03-29T09:38:54.652Z,98522.94
2023-03-29T09:39:57.662Z,98521.75
2023-03-29T09:41:05.039Z,98522.47
2023-03-29T09:42:09.319Z,98522.16
2023-03-29T09:43:15.369Z,98528.66
2023-03-29T09:44:31.856Z,98519.78
2023-03-29T09:45:37.068Z,98520.19
2023-03-29T09:46:43.993Z,98519.88
2023-03-29T09:47:59.143Z,98522.25
2023-03-29T09:49:01.505Z,98521.78
2023-03-29T09:50:23.079Z,98530.41
2023-03-29T09:51:31.739Z,98529.41
2023-03-29T09:52:33.365Z,98519.75
2023-03-29T09:53:34.935Z,98520.56
2023-03-29T09:54:39.691Z,98516.13
2023-03-29T09:55:44.012Z,98515.59
2023-03-29T09:56:45.861Z,98515.31
2023-03-29T09:57:47.370Z,98524.06
2023-03-29T09:58:48.912Z,98522.44
2023-03-29T09:59:52.475Z,98520.81
2023-03-29T10:00:59.662Z,98515.84
2023-03-29T10:02:09.452Z,98517.47
2023-03-29T10:03:22.096Z,98516.66
2023-03-29T10:04:26.113Z,98513.75
2023-03-29T10:05:32.007Z,98506.22
2023-03-29T10:06:34.331Z,98513.06
2023-03-29T10:07:47.109Z,98510.09
2023-03-29T10:08:59.075Z,98520.16
2023-03-29T10:10:01.063Z,98518.00
2023-03-29T10:11:23.707Z,98519.59
2023-03-29T10:12:25.385Z,98513.94
2023-03-29T10:13:33.088Z,98513.78
2023-03-29T10:14:48.174Z,98515.56
2023-03-29T10:16:07.958Z,98511.19
2023-03-29T10:17:21.821Z,98517.63
2023-03-29T10:18:25.044Z,98517.41
2023-03-29T10:19:31.191Z,98523.50
2023-03-29T10:20:36.878Z,98523.19
2023-03-29T10:21:38.338Z,98524.03
2023-03-29T10:22:48.673Z,98516.19
2023-03-29T10:23:58.284Z,98518.09
2023-03-29T10:24:59.778Z,98520.03
2023-03-29T10:26:04.376Z,98512.38
2023-03-29T10:27:10.564Z,98511.25
2023-03-29T10:28:22.712Z,98513.22
2023-03-29T10:29:26.151Z,98515.91
2023-03-29T10:30:28.161Z,98516.75
2023-03-29T10:31:33.745Z,98516.06
2023-03-29T10:32:36.966Z,98504.41
2023-03-29T10:33:38.466Z,98519.25
2023-03-29T10:34:40.008Z,98512.88
2023-03-29T10:35:42.012Z,98516.72
2023-03-29T10:36:52.183Z,98512.97
2023-03-29T10:37:56.418Z,98505.41
2023-03-29T10:39:01.698Z,98510.78
2023-03-29T10:40:06.517Z,98510.44
2023-03-29T10:41:12.428Z,98512.75
2023-03-29T10:42:17.275Z,98507.09
2023-03-29T10:43:24.593Z,98504.47
2023-03-29T10:44:33.315Z,98509.81
2023-03-29T10:45:35.885Z,98513.59
2023-03-29T10:46:43.142Z,98512.13
2023-03-29T10:47:47.852Z,98514.75
2023-03-29T10:48:57.748Z,98512.66
2023-03-29T10:49:59.302Z,98512.00
2023-03-29T10:51:02.681Z,98505.66
2023-03-29T10:52:07.281Z,98506.06
2023-03-29T10:53:22.706Z,98504.66
2023-03-29T10:54:24.507Z,98506.59
2023-03-29T10:55:45.258Z,98502.13
2023-03-29T10:56:52.533Z,98507.34
2023-03-29T10:58:17.691Z,98502.06
2023-03-29T10:59:36.655Z,98508.53
2023-03-29T11:00:52.201Z,98505.13
2023-03-29T11:02:15.419Z,98494.94
2023-03-29T11:03:28.479Z,98493.47
2023-03-29T11:04:48.266Z,98497.66
2023-03-29T11:06:14.012Z,98499.94
2023-03-29T11:07:33.423Z,98493.91
2023-03-29T11:08:43.606Z,98495.44
2023-03-29T11:10:28.955Z,98496.25
2023-03-29T11:12:01.244Z,98492.84
2023-03-29T11:13:27.614Z,98493.72
2023-03-29T11:14:52.362Z,98492.66
2023-03-29T11:16:16.536Z,98499.53
2023-03-29T11:17:51.868Z,98499.22
2023-03-29T11:19:13.711Z,98497.78
2023-03-29T11:20:34.019Z,98491.41
2023-03-29T11:22:09.377Z,98497.53
2023-03-29T11:23:31.036Z,98499.78
2023-03-29T11:24:54.122Z,98500.38
2023-03-29T11:26:08.357Z,98501.53
2023-03-29T11:27:19.531Z,98508.31
2023-03-29T11:28:36.658Z,98504.91
2023-03-29T11:29:45.905Z,98501.03
2023-03-29T11:31:09.929Z,98506.75
2023-03-29T11:33:08.627Z,98506.03
2023-03-29T11:34:31.696Z,98507.59
2023-03-29T11:35:52.554Z,98495.75
2023-03-29T11:36:59.345Z,98499.94
2023-03-29T11:38:25.006Z,98497.28
2023-03-29T11:39:41.986Z,98496.66
2023-03-29T11:41:09.341Z,98492.81
2023-03-29T11:42:20.487Z,98494.72
2023-03-29T11:43:31.155Z,98494.75
2023-03-29T11:44:35.428Z,98488.38
2023-03-29T11:45:46.272Z,98484.28
2023-03-29T11:46:47.861Z,98487.34
2023-03-29T11:47:51.489Z,98486.59
2023-03-29T11:49:02.589Z,98490.69
2023-03-29T11:50:25.716Z,98496.34
2023-03-29T11:51:34.528Z,98488.03
2023-03-29T11:52:53.301Z,98483.19
2023-03-29T11:54:16.490Z,98489.69
2023-03-29T11:55:26.340Z,98479.47
2023-03-29T11:57:03.078Z,98479.75
2023-03-29T11:58:15.638Z,98488.91
2023-03-29T11:59:23.444Z,98482.47
2023-03-29T12:00:30.621Z,98479.03
2023-03-29T12:01:38.561Z,98473.03
2023-03-29T12:02:46.612Z,98472.63
2023-03-29T12:03:59.176Z,98469.66
2023-03-29T12:05:10.177Z,98467.09
2023-03-29T12:06:27.459Z,98470.19
2023-03-29T12:07:35.868Z,98470.97
2023-03-29T12:08:44.939Z,98472.88
2023-03-29T12:09:50.695Z,98472.13
2023-03-29T12:11:13.928Z,98473.25
2023-03-29T12:12:25.032Z,98472.06
2023-03-29T12:13:49.030Z,98472.06
2023-03-29T12:15:06.939Z,98474.41
2023-03-29T12:16:19.518Z,98474.41
2023-03-29T12:17:28.256Z,98460.78
2023-03-29T12:18:41.122Z,98469.53
2023-03-29T12:20:02.334Z,98474.03
2023-03-29T12:21:10.939Z,98467.22
2023-03-29T12:22:12.372Z,98470.66
2023-03-29T12:23:16.208Z,98464.22
2023-03-29T12:24:19.502Z,98468.00
2023-03-29T12:25:30.889Z,98476.69
2023-03-29T12:26:43.763Z,98475.84
2023-03-29T12:27:57.673Z,98472.38
2023-03-29T12:29:32.736Z,98472.81
2023-03-29T12:31:02.321Z,98464.88
2023-03-29T12:32:49.495Z,98474.41
2023-03-29T12:34:08.844Z,98478.94
2023-03-29T12:35:27.952Z,98474.00
2023-03-29T12:36:48.000Z,98466.81
2023-03-29T12:38:19.590Z,98462.69
2023-03-29T12:39:22.954Z,98461.91
2023-03-29T12:40:27.788Z,98467.22
2023-03-29T12:41:37.249Z,98458.09
2023-03-29T12:42:47.947Z,98461.53
2023-03-29T12:43:50.816Z,98452.41
2023-03-29T12:44:58.770Z,98463.41
2023-03-29T12:46:09.323Z,98467.56
2023-03-29T12:47:21.419Z,98471.00
2023-03-29T12:48:30.169Z,98474.72
2023-03-29T12:49:39.353Z,98465.63
2023-03-29T12:51:09.309Z,98462.97
2023-03-29T12:52:36.937Z,98461.78
2023-03-29T12:53:47.678Z,98460.28
2023-03-29T12:55:01.797Z,98457.25
2023-03-29T12:56:04.077Z,98453.09
2023-03-29T12:57:41.392Z,98442.88
2023-03-29T12:58:45.419Z,98436.81
2023-03-29T12:59:49.455Z,98439.09
2023-03-29T13:01:23.748Z,98442.53
2023-03-29T13:02:33.222Z,98431.56
2023-03-29T13:03:45.250Z,98438.81
2023-03-29T13:04:56.701Z,98436.38
2023-03-29T13:06:05.207Z,98445.91
2023-03-29T13:07:16.741Z,98444.03